sensor_id;sensor_type;location;lat;lon;timestamp;pressure;altitude;pressure_sealevel;temperature;humidity
34979;BME280;21185;50.978;13.720;2023-03-15T00:03:36;97524.78;;;5.00;64.17
34979;BME280;21185;50.978;13.720;2023-03-15T00:08:40;97521.69;;;4.97;64.16
34979;BME280;21185;50.978;13.720;2023-03-15T00:13:42;97530.00;;;4.91;64.54
34979;BME280;21185;50.978;13.720;2023-03-15T00:18:45;97544.88;;;4.87;64.37
34979;BME280;21185;50.978;13.720;2023-03-15T00:23:50;97546.28;;;4.81;64.45
34979;BME280;21185;50.978;13.720;2023-03-15T00:28:52;97560.38;;;4.77;64.46
34979;BME280;21185;50.978;13.720;2023-03-15T00:33:54;97553.09;;;4.73;64.48
34979;BME280;21185;50.978;13.720;2023-03-15T00:38:56;97550.81;;;4.70;64.60
34979;BME280;21185;50.978;13.720;2023-03-15T00:43:58;97560.41;;;4.68;64.65
34979;BME280;21185;50.978;13.720;2023-03-15T00:49:00;97567.97;;;4.69;64.69
34979;BME280;21185;50.978;13.720;2023-03-15T00:54:02;97564.47;;;4.70;64.70
34979;BME280;21185;50.978;13.720;2023-03-15T00:59:04;97575.53;;;4.71;64.44
34979;BME280;21185;50.978;13.720;2023-03-15T01:04:06;97578.41;;;4.68;64.57
34979;BME280;21185;50.978;13.720;2023-03-15T01:09:08;97586.38;;;4.65;64.52
34979;BME280;21185;50.978;13.720;2023-03-15T01:14:10;97592.47;;;4.64;64.51
34979;BME280;21185;50.978;13.720;2023-03-15T01:19:13;97606.94;;;4.65;64.59
34979;BME280;21185;50.978;13.720;2023-03-15T01:24:19;97604.38;;;4.65;64.49
34979;BME280;21185;50.978;13.720;2023-03-15T01:29:23;97607.91;;;4.64;64.54
34979;BME280;21185;50.978;13.720;2023-03-15T01:34:26;97612.09;;;4.65;64.78
34979;BME280;21185;50.978;13.720;2023-03-15T01:39:29;97614.00;;;4.63;64.98
34979;BME280;21185;50.978;13.720;2023-03-15T01:50:02;97609.13;;;4.60;64.84
34979;BME280;21185;50.978;13.720;2023-03-15T01:55:11;97607.78;;;4.55;65.05
34979;BME280;21185;50.978;13.720;2023-03-15T02:00:26;97609.69;;;4.53;64.93
34979;BME280;21185;50.978;13.720;2023-03-15T02:05:34;97609.84;;;4.52;64.76
34979;BME280;21185;50.978;13.720;2023-03-15T02:10:49;97614.31;;;4.50;65.00
34979;BME280;21185;50.978;13.720;2023-03-15T02:15:57;97614.72;;;4.45;64.96
34979;BME280;21185;50.978;13.720;2023-03-15T02:31:26;97623.13;;;4.38;65.04
34979;BME280;21185;50.978;13.720;2023-03-15T02:36:30;97630.03;;;4.37;65.16
34979;BME280;21185;50.978;13.720;2023-03-15T02:41:40;97639.47;;;4.37;65.21
34979;BME280;21185;50.978;13.720;2023-03-15T02:46:45;97646.66;;;4.33;65.06
34979;BME280;21185;50.978;13.720;2023-03-15T02:51:49;97639.75;;;4.34;65.21
34979;BME280;21185;50.978;13.720;2023-03-15T02:56:51;97648.56;;;4.31;65.20
34979;BME280;21185;50.978;13.720;2023-03-15T03:01:57;97646.13;;;4.30;65.11
34979;BME280;21185;50.978;13.720;2023-03-15T03:06:59;97658.69;;;4.23;65.51
34979;BME280;21185;50.978;13.720;2023-03-15T03:12:08;97667.63;;;4.19;65.46
34979;BME280;21185;50.978;13.720;2023-03-15T03:17:11;97680.59;;;4.17;65.40
34979;BME280;21185;50.978;13.720;2023-03-15T03:22:14;97690.34;;;4.14;65.24
34979;BME280;21185;50.978;13.720;2023-03-15T03:27:16;97698.44;;;4.09;65.10
34979;BME280;21185;50.978;13.720;2023-03-15T03:32:21;97709.94;;;4.05;65.41
34979;BME280;21185;50.978;13.720;2023-03-15T03:37:23;97706.81;;;4.02;65.33
34979;BME280;21185;50.978;13.720;2023-03-15T03:42:34;97713.84;;;4.00;65.44
34979;BME280;21185;50.978;13.720;2023-03-15T03:47:37;97720.59;;;4.01;65.43
34979;BME280;21185;50.978;13.720;2023-03-15T03:52:39;97721.41;;;4.01;65.17
34979;BME280;21185;50.978;13.720;2023-03-15T03:57:51;97734.66;;;3.97;65.13
34979;BME280;21185;50.978;13.720;2023-03-15T04:03:19;97735.72;;;3.94;65.28
34979;BME280;21185;50.978;13.720;2023-03-15T04:08:36;97738.44;;;3.93;65.47
34979;BME280;21185;50.978;13.720;2023-03-15T04:13:40;97743.69;;;3.91;65.31
34979;BME280;21185;50.978;13.720;2023-03-15T04:18:43;97754.09;;;3.89;65.31
34979;BME280;21185;50.978;13.720;2023-03-15T04:23:45;97763.69;;;3.87;65.27
34979;BME280;21185;50.978;13.720;2023-03-15T04:28:57;97781.66;;;3.87;65.25
34979;BME280;21185;50.978;13.720;2023-03-15T04:34:30;97788.00;;;3.83;65.28
34979;BME280;21185;50.978;13.720;2023-03-15T04:39:32;97796.91;;;3.79;65.29
34979;BME280;21185;50.978;13.720;2023-03-15T04:44:43;97797.84;;;3.78;65.47
34979;BME280;21185;50.978;13.720;2023-03-15T04:49:48;97808.38;;;3.75;65.38
34979;BME280;21185;50.978;13.720;2023-03-15T04:55:13;97814.56;;;3.73;65.42
34979;BME280;21185;50.978;13.720;2023-03-15T05:00:38;97816.72;;;3.68;65.33
34979;BME280;21185;50.978;13.720;2023-03-15T05:05:57;97824.81;;;3.63;65.31
34979;BME280;21185;50.978;13.720;2023-03-15T05:11:03;97840.44;;;3.60;65.17
34979;BME280;21185;50.978;13.720;2023-03-15T05:16:24;97842.47;;;3.56;65.43
34979;BME280;21185;50.978;13.720;2023-03-15T05:21:55;97854.72;;;3.53;64.99
34979;BME280;21185;50.978;13.720;2023-03-15T05:27:16;97848.78;;;3.52;65.22
34979;BME280;21185;50.978;13.720;2023-03-15T05:32:29;97865.00;;;3.53;65.05
34979;BME280;21185;50.978;13.720;2023-03-15T05:37:54;97870.13;;;3.53;65.22
34979;BME280;21185;50.978;13.720;2023-03-15T05:42:57;97877.81;;;3.53;65.21
34979;BME280;21185;50.978;13.720;2023-03-15T05:48:19;97895.66;;;3.54;65.12
34979;BME280;21185;50.978;13.720;2023-03-15T05:53:28;97892.03;;;3.57;65.31
34979;BME280;21185;50.978;13.720;2023-03-15T05:59:05;97912.28;;;3.60;65.14
34979;BME280;21185;50.978;13.720;2023-03-15T06:04:30;97925.81;;;3.62;65.13
34979;BME280;21185;50.978;13.720;2023-03-15T06:09:33;97928.13;;;3.65;65.31
34979;BME280;21185;50.978;13.720;2023-03-15T06:14:37;97933.69;;;3.70;65.32
34979;BME280;21185;50.978;13.720;2023-03-15T06:19:44;97938.31;;;3.76;65.05
34979;BME280;21185;50.978;13.720;2023-03-15T06:24:46;97947.50;;;3.79;65.30
34979;BME280;21185;50.978;13.720;2023-03-15T06:29:49;97948.75;;;3.84;65.21
34979;BME280;21185;50.978;13.720;2023-03-15T06:34:54;97951.06;;;3.87;65.46
34979;BME280;21185;50.978;13.720;2023-03-15T06:39:56;97961.06;;;3.90;65.27
34979;BME280;21185;50.978;13.720;2023-03-15T06:44:59;97964.31;;;3.93;64.99
34979;BME280;21185;50.978;13.720;2023-03-15T06:50:02;97972.69;;;3.95;65.31
34979;BME280;21185;50.978;13.720;2023-03-15T06:55:05;97982.72;;;3.98;65.31
34979;BME280;21185;50.978;13.720;2023-03-15T07:00:07;97974.63;;;4.02;65.41
34979;BME280;21185;50.978;13.720;2023-03-15T07:05:12;97981.94;;;4.07;65.33
34979;BME280;21185;50.978;13.720;2023-03-15T07:10:13;97990.34;;;4.09;64.97
34979;BME280;21185;50.978;13.720;2023-03-15T07:15:15;97990.63;;;4.15;65.16
34979;BME280;21185;50.978;13.720;2023-03-15T07:20:18;97993.63;;;4.20;65.02
34979;BME280;21185;50.978;13.720;2023-03-15T07:25:20;97984.47;;;4.28;65.06
34979;BME280;21185;50.978;13.720;2023-03-15T07:30:26;97981.25;;;4.35;64.89
34979;BME280;21185;50.978;13.720;2023-03-15T07:35:28;97995.19;;;4.42;64.95
34979;BME280;21185;50.978;13.720;2023-03-15T07:40:30;98001.88;;;4.54;64.95
34979;BME280;21185;50.978;13.720;2023-03-15T07:45:32;97991.34;;;4.67;64.89
34979;BME280;21185;50.978;13.720;2023-03-15T07:50:36;97995.97;;;4.83;64.93
34979;BME280;21185;50.978;13.720;2023-03-15T07:55:38;98005.19;;;4.85;64.18
34979;BME280;21185;50.978;13.720;2023-03-15T08:00:40;98005.16;;;4.76;63.93
34979;BME280;21185;50.978;13.720;2023-03-15T08:05:42;98013.03;;;4.84;63.80
34979;BME280;21185;50.978;13.720;2023-03-15T08:10:44;98011.16;;;4.96;63.54
34979;BME280;21185;50.978;13.720;2023-03-15T08:15:46;98019.56;;;5.07;63.23
34979;BME280;21185;50.978;13.720;2023-03-15T08:20:48;98019.56;;;5.17;62.54
34979;BME280;21185;50.978;13.720;2023-03-15T08:25:51;98018.06;;;5.34;62.52
34979;BME280;21185;50.978;13.720;2023-03-15T08:30:53;98030.22;;;5.61;61.59
34979;BME280;21185;50.978;13.720;2023-03-15T08:35:55;98042.03;;;5.63;60.78
34979;BME280;21185;50.978;13.720;2023-03-15T08:40:58;98045.69;;;5.51;60.16
34979;BME280;21185;50.978;13.720;2023-03-15T08:46:00;98044.47;;;5.36;59.09
34979;BME280;21185;50.978;13.720;2023-03-15T08:51:06;98052.44;;;5.33;58.59
34979;BME280;21185;50.978;13.720;2023-03-15T08:56:10;98054.88;;;5.25;58.83
34979;BME280;21185;50.978;13.720;2023-03-15T09:01:14;98058.69;;;5.11;59.00
34979;BME280;21185;50.978;13.720;2023-03-15T09:06:16;98078.16;;;5.04;59.64
34979;BME280;21185;50.978;13.720;2023-03-15T09:11:19;98094.78;;;5.00;60.42
34979;BME280;21185;50.978;13.720;2023-03-15T09:16:21;98093.00;;;4.91;61.15
34979;BME280;21185;50.978;13.720;2023-03-15T09:21:23;98090.84;;;4.86;62.14
34979;BME280;21185;50.978;13.720;2023-03-15T09:26:25;98093.81;;;4.91;62.73
34979;BME280;21185;50.978;13.720;2023-03-15T09:31:28;98103.88;;;5.04;63.18
34979;BME280;21185;50.978;13.720;2023-03-15T09:36:31;98094.56;;;5.32;63.72
34979;BME280;21185;50.978;13.720;2023-03-15T09:41:44;98090.66;;;5.57;63.98
34979;BME280;21185;50.978;13.720;2023-03-15T09:57:40;98106.78;;;5.68;64.54
34979;BME280;21185;50.978;13.720;2023-03-15T10:03:00;98114.38;;;5.60;64.84
34979;BME280;21185;50.978;13.720;2023-03-15T10:08:13;98119.63;;;5.49;64.64
34979;BME280;21185;50.978;13.720;2023-03-15T10:13:30;98118.69;;;5.40;64.78
34979;BME280;21185;50.978;13.720;2023-03-15T10:23:52;98124.91;;;5.38;65.03
34979;BME280;21185;50.978;13.720;2023-03-15T10:28:54;98130.19;;;5.36;64.66
34979;BME280;21185;50.978;13.720;2023-03-15T10:33:56;98136.28;;;5.35;64.79
34979;BME280;21185;50.978;13.720;2023-03-15T10:38:58;98137.09;;;5.36;64.77
34979;BME280;21185;50.978;13.720;2023-03-15T10:44:22;98137.22;;;5.34;64.64
34979;BME280;21185;50.978;13.720;2023-03-15T10:49:36;98141.69;;;5.32;64.60
34979;BME280;21185;50.978;13.720;2023-03-15T10:54:39;98148.84;;;5.29;64.56
34979;BME280;21185;50.978;13.720;2023-03-15T11:00:06;98142.91;;;5.38;64.66
34979;BME280;21185;50.978;13.720;2023-03-15T11:05:15;98160.13;;;5.47;64.58
34979;BME280;21185;50.978;13.720;2023-03-15T11:10:26;98153.88;;;5.40;64.38
34979;BME280;21185;50.978;13.720;2023-03-15T11:15:29;98159.31;;;5.37;64.88
34979;BME280;21185;50.978;13.720;2023-03-15T11:20:37;98159.00;;;5.30;64.76
34979;BME280;21185;50.978;13.720;2023-03-15T11:25:39;98155.88;;;5.27;64.87
34979;BME280;21185;50.978;13.720;2023-03-15T11:30:42;98161.03;;;5.27;65.11
34979;BME280;21185;50.978;13.720;2023-03-15T11:35:45;98161.28;;;5.24;65.13
34979;BME280;21185;50.978;13.720;2023-03-15T11:40:53;98163.19;;;5.21;65.57
34979;BME280;21185;50.978;13.720;2023-03-15T11:45:59;98159.28;;;5.17;65.29
34979;BME280;21185;50.978;13.720;2023-03-15T11:51:17;98159.13;;;5.09;64.74
34979;BME280;21185;50.978;13.720;2023-03-15T11:56:24;98158.44;;;5.07;65.06
34979;BME280;21185;50.978;13.720;2023-03-15T12:01:26;98157.75;;;5.05;64.79
34979;BME280;21185;50.978;13.720;2023-03-15T12:06:36;98153.31;;;5.17;64.97
34979;BME280;21185;50.978;13.720;2023-03-15T12:11:40;98159.56;;;5.34;64.86
34979;BME280;21185;50.978;13.720;2023-03-15T12:16:44;98159.44;;;5.45;64.55
34979;BME280;21185;50.978;13.720;2023-03-15T12:21:52;98150.66;;;5.57;64.66
34979;BME280;21185;50.978;13.720;2023-03-15T12:27:15;98152.44;;;5.66;64.68
34979;BME280;21185;50.978;13.720;2023-03-15T12:32:18;98152.31;;;5.77;64.84
34979;BME280;21185;50.978;13.720;2023-03-15T12:37:25;98152.06;;;5.90;64.86
34979;BME280;21185;50.978;13.720;2023-03-15T12:47:45;98158.13;;;5.79;64.67
34979;BME280;21185;50.978;13.720;2023-03-15T12:52:48;98156.63;;;5.67;64.36
34979;BME280;21185;50.978;13.720;2023-03-15T12:57:54;98158.53;;;5.65;64.13
34979;BME280;21185;50.978;13.720;2023-03-15T13:03:04;98165.56;;;5.63;64.24
34979;BME280;21185;50.978;13.720;2023-03-15T13:08:20;98172.63;;;5.61;64.46
34979;BME280;21185;50.978;13.720;2023-03-15T13:13:47;98173.84;;;5.57;64.30
34979;BME280;21185;50.978;13.720;2023-03-15T13:19:16;98167.47;;;5.61;64.27
34979;BME280;21185;50.978;13.720;2023-03-15T13:29:34;98171.25;;;5.57;64.37
34979;BME280;21185;50.978;13.720;2023-03-15T13:34:37;98169.91;;;5.53;64.64
34979;BME280;21185;50.978;13.720;2023-03-15T13:40:02;98164.72;;;5.43;64.58
34979;BME280;21185;50.978;13.720;2023-03-15T13:50:16;98181.81;;;5.54;64.93
34979;BME280;21185;50.978;13.720;2023-03-15T13:55:21;98175.19;;;5.51;64.96
34979;BME280;21185;50.978;13.720;2023-03-15T14:00:24;98180.59;;;5.48;64.94
34979;BME280;21185;50.978;13.720;2023-03-15T14:05:30;98186.97;;;5.54;64.86
34979;BME280;21185;50.978;13.720;2023-03-15T14:10:39;98185.06;;;5.56;64.79
34979;BME280;21185;50.978;13.720;2023-03-15T14:15:42;98189.00;;;5.60;64.89
34979;BME280;21185;50.978;13.720;2023-03-15T14:31:23;98206.78;;;5.73;64.35
34979;BME280;21185;50.978;13.720;2023-03-15T14:36:32;98194.34;;;5.88;64.36
34979;BME280;21185;50.978;13.720;2023-03-15T14:41:36;98202.91;;;5.98;64.30
34979;BME280;21185;50.978;13.720;2023-03-15T14:46:39;98209.00;;;5.97;64.41
34979;BME280;21185;50.978;13.720;2023-03-15T14:51:41;98201.69;;;6.02;64.14
34979;BME280;21185;50.978;13.720;2023-03-15T14:56:42;98211.31;;;6.19;64.02
34979;BME280;21185;50.978;13.720;2023-03-15T15:01:49;98202.78;;;6.28;64.22
34979;BME280;21185;50.978;13.720;2023-03-15T15:06:54;98211.31;;;6.29;64.01
34979;BME280;21185;50.978;13.720;2023-03-15T15:11:56;98216.34;;;6.21;64.16
34979;BME280;21185;50.978;13.720;2023-03-15T15:16:58;98208.75;;;6.09;63.83
34979;BME280;21185;50.978;13.720;2023-03-15T15:22:00;98216.47;;;6.00;64.15
34979;BME280;21185;50.978;13.720;2023-03-15T15:27:02;98223.91;;;5.93;63.82
34979;BME280;21185;50.978;13.720;2023-03-15T15:32:04;98224.28;;;5.89;63.93
34979;BME280;21185;50.978;13.720;2023-03-15T15:37:09;98226.31;;;5.85;63.59
34979;BME280;21185;50.978;13.720;2023-03-15T15:42:12;98230.66;;;5.84;63.71
34979;BME280;21185;50.978;13.720;2023-03-15T15:47:14;98242.84;;;5.82;63.40
34979;BME280;21185;50.978;13.720;2023-03-15T15:52:15;98242.56;;;5.76;63.52
34979;BME280;21185;50.978;13.720;2023-03-15T15:57:19;98248.78;;;5.73;63.43
34979;BME280;21185;50.978;13.720;2023-03-15T16:02:24;98250.81;;;5.70;63.20
34979;BME280;21185;50.978;13.720;2023-03-15T16:07:26;98256.09;;;5.68;62.77
34979;BME280;21185;50.978;13.720;2023-03-15T16:12:28;98260.56;;;5.66;62.94
34979;BME280;21185;50.978;13.720;2023-03-15T16:17:33;98271.25;;;5.62;63.01
34979;BME280;21185;50.978;13.720;2023-03-15T16:22:37;98280.31;;;5.56;62.66
34979;BME280;21185;50.978;13.720;2023-03-15T16:27:43;98287.72;;;5.49;63.00
34979;BME280;21185;50.978;13.720;2023-03-15T16:32:45;98284.72;;;5.44;62.79
34979;BME280;21185;50.978;13.720;2023-03-15T16:37:51;98290.25;;;5.40;62.69
34979;BME280;21185;50.978;13.720;2023-03-15T16:42:58;98304.47;;;5.34;62.70
34979;BME280;21185;50.978;13.720;2023-03-15T16:48:00;98314.19;;;5.31;62.75
34979;BME280;21185;50.978;13.720;2023-03-15T16:53:05;98318.91;;;5.26;62.60
34979;BME280;21185;50.978;13.720;2023-03-15T16:58:16;98329.75;;;5.19;62.82
34979;BME280;21185;50.978;13.720;2023-03-15T17:03:19;98337.84;;;5.15;62.48
34979;BME280;21185;50.978;13.720;2023-03-15T17:08:22;98348.50;;;5.10;62.78
34979;BME280;21185;50.978;13.720;2023-03-15T17:13:26;98354.16;;;5.04;62.91
34979;BME280;21185;50.978;13.720;2023-03-15T17:18:29;98363.06;;;5.00;62.98
34979;BME280;21185;50.978;13.720;2023-03-15T17:23:31;98367.63;;;4.97;62.94
34979;BME280;21185;50.978;13.720;2023-03-15T17:28:33;98380.03;;;4.92;63.08
34979;BME280;21185;50.978;13.720;2023-03-15T17:33:35;98391.50;;;4.87;62.94
34979;BME280;21185;50.978;13.720;2023-03-15T17:38:37;98395.16;;;4.85;62.98
34979;BME280;21185;50.978;13.720;2023-03-15T17:43:42;98405.69;;;4.82;62.86
34979;BME280;21185;50.978;13.720;2023-03-15T17:48:45;98401.97;;;4.75;62.88
34979;BME280;21185;50.978;13.720;2023-03-15T17:53:48;98421.97;;;4.71;62.90
34979;BME280;21185;50.978;13.720;2023-03-15T17:58:50;98427.22;;;4.70;62.80
34979;BME280;21185;50.978;13.720;2023-03-15T18:03:54;98439.38;;;4.68;62.87
34979;BME280;21185;50.978;13.720;2023-03-15T18:08:56;98448.25;;;4.64;62.86
34979;BME280;21185;50.978;13.720;2023-03-15T18:13:58;98452.81;;;4.60;63.05
34979;BME280;21185;50.978;13.720;2023-03-15T18:19:00;98460.09;;;4.55;63.03
34979;BME280;21185;50.978;13.720;2023-03-15T18:24:02;98474.09;;;4.51;62.95
34979;BME280;21185;50.978;13.720;2023-03-15T18:29:04;98475.28;;;4.47;62.98
34979;BME280;21185;50.978;13.720;2023-03-15T18:34:06;98469.56;;;4.43;63.12
34979;BME280;21185;50.978;13.720;2023-03-15T18:39:08;98475.06;;;4.39;63.14
34979;BME280;21185;50.978;13.720;2023-03-15T18:44:10;98477.75;;;4.37;63.32
34979;BME280;21185;50.978;13.720;2023-03-15T18:49:12;98480.53;;;4.34;63.21
34979;BME280;21185;50.978;13.720;2023-03-15T18:54:14;98487.78;;;4.29;63.20
34979;BME280;21185;50.978;13.720;2023-03-15T18:59:19;98494.31;;;4.22;63.32
34979;BME280;21185;50.978;13.720;2023-03-15T19:04:21;98498.41;;;4.13;63.38
34979;BME280;21185;50.978;13.720;2023-03-15T19:09:23;98495.72;;;4.04;63.37
34979;BME280;21185;50.978;13.720;2023-03-15T19:14:25;98509.13;;;3.96;63.30
34979;BME280;21185;50.978;13.720;2023-03-15T19:19:27;98514.03;;;3.88;63.24
34979;BME280;21185;50.978;13.720;2023-03-15T19:24:29;98518.91;;;3.80;63.40
34979;BME280;21185;50.978;13.720;2023-03-15T19:29:33;98519.38;;;3.74;63.38
34979;BME280;21185;50.978;13.720;2023-03-15T19:34:35;98529.25;;;3.67;63.43
34979;BME280;21185;50.978;13.720;2023-03-15T19:39:37;98531.34;;;3.62;63.51
34979;BME280;21185;50.978;13.720;2023-03-15T19:44:39;98546.16;;;3.58;63.55
34979;BME280;21185;50.978;13.720;2023-03-15T19:49:41;98543.81;;;3.55;63.49
34979;BME280;21185;50.978;13.720;2023-03-15T19:54:43;98550.09;;;3.51;63.69
34979;BME280;21185;50.978;13.720;2023-03-15T19:59:45;98552.06;;;3.48;63.59
34979;BME280;21185;50.978;13.720;2023-03-15T20:04:47;98565.91;;;3.45;63.65
34979;BME280;21185;50.978;13.720;2023-03-15T20:09:49;98574.75;;;3.41;63.70
34979;BME280;21185;50.978;13.720;2023-03-15T20:14:51;98572.31;;;3.40;63.64
34979;BME280;21185;50.978;13.720;2023-03-15T20:19:53;98582.78;;;3.37;63.86
34979;BME280;21185;50.978;13.720;2023-03-15T20:24:55;98579.50;;;3.35;63.82
34979;BME280;21185;50.978;13.720;2023-03-15T20:29:57;98577.06;;;3.33;63.96
34979;BME280;21185;50.978;13.720;2023-03-15T20:34:59;98590.00;;;3.32;63.96
34979;BME280;21185;50.978;13.720;2023-03-15T20:40:03;98591.63;;;3.33;64.11
34979;BME280;21185;50.978;13.720;2023-03-15T20:45:10;98602.09;;;3.30;63.94
34979;BME280;21185;50.978;13.720;2023-03-15T20:50:13;98617.59;;;3.28;64.10
34979;BME280;21185;50.978;13.720;2023-03-15T20:55:15;98621.91;;;3.28;64.26
34979;BME280;21185;50.978;13.720;2023-03-15T21:00:17;98629.72;;;3.26;64.23
34979;BME280;21185;50.978;13.720;2023-03-15T21:05:20;98633.41;;;3.22;64.12
34979;BME280;21185;50.978;13.720;2023-03-15T21:10:23;98637.72;;;3.21;64.32
34979;BME280;21185;50.978;13.720;2023-03-15T21:15:26;98642.16;;;3.19;64.14
34979;BME280;21185;50.978;13.720;2023-03-15T21:20:27;98648.19;;;3.18;64.01
34979;BME280;21185;50.978;13.720;2023-03-15T21:25:29;98644.81;;;3.18;64.18
34979;BME280;21185;50.978;13.720;2023-03-15T21:30:33;98648.19;;;3.18;64.20
34979;BME280;21185;50.978;13.720;2023-03-15T21:35:35;98650.97;;;3.15;64.31
34979;BME280;21185;50.978;13.720;2023-03-15T21:40:37;98665.75;;;3.12;64.28
34979;BME280;21185;50.978;13.720;2023-03-15T21:45:39;98663.50;;;3.07;64.37
34979;BME280;21185;50.978;13.720;2023-03-15T21:50:42;98667.22;;;3.03;64.43
34979;BME280;21185;50.978;13.720;2023-03-15T21:55:44;98667.41;;;3.00;64.51
34979;BME280;21185;50.978;13.720;2023-03-15T22:00:46;98669.38;;;2.97;64.46
34979;BME280;21185;50.978;13.720;2023-03-15T22:05:48;98667.13;;;2.92;64.43
34979;BME280;21185;50.978;13.720;2023-03-15T22:10:55;98675.84;;;2.89;64.43
34979;BME280;21185;50.978;13.720;2023-03-15T22:15:57;98676.97;;;2.85;64.61
34979;BME280;21185;50.978;13.720;2023-03-15T22:20:59;98679.63;;;2.84;64.54
34979;BME280;21185;50.978;13.720;2023-03-15T22:26:01;98688.34;;;2.81;64.56
34979;BME280;21185;50.978;13.720;2023-03-15T22:31:03;98684.25;;;2.79;64.58
34979;BME280;21185;50.978;13.720;2023-03-15T22:36:05;98698.19;;;2.75;64.65
34979;BME280;21185;50.978;13.720;2023-03-15T22:41:09;98694.19;;;2.71;64.74
34979;BME280;21185;50.978;13.720;2023-03-15T22:46:11;98701.88;;;2.71;64.88
34979;BME280;21185;50.978;13.720;2023-03-15T22:51:14;98704.56;;;2.69;64.76
34979;BME280;21185;50.978;13.720;2023-03-15T22:56:17;98705.38;;;2.70;64.95
34979;BME280;21185;50.978;13.720;2023-03-15T23:01:18;98710.28;;;2.73;64.90
34979;BME280;21185;50.978;13.720;2023-03-15T23:06:21;98712.84;;;2.73;64.92
34979;BME280;21185;50.978;13.720;2023-03-15T23:11:23;98720.75;;;2.70;64.96
34979;BME280;21185;50.978;13.720;2023-03-15T23:16:25;98718.19;;;2.70;65.01
34979;BME280;21185;50.978;13.720;2023-03-15T23:21:27;98713.97;;;2.69;65.13
34979;BME280;21185;50.978;13.720;2023-03-15T23:26:28;98719.19;;;2.67;65.07
34979;BME280;21185;50.978;13.720;2023-03-15T23:31:40;98719.31;;;2.66;65.13
34979;BME280;21185;50.978;13.720;2023-03-15T23:36:42;98715.81;;;2.67;65.09
34979;BME280;21185;50.978;13.720;2023-03-15T23:41:46;98725.25;;;2.66;65.14
34979;BME280;21185;50.978;13.720;2023-03-15T23:46:48;98725.44;;;2.63;65.45
34979;BME280;21185;50.978;13.720;2023-03-15T23:51:50;98734.88;;;2.63;65.32
34979;BME280;21185;50.978;13.720;2023-03-15T23:56:54;98736.72;;;2.60;65.33
